Página principal
METAR-TAF:

METAR-TAF

Aeroportos :

Aeroporto de Sófia

Sófia, Bulgária

latitude: 42-39N, longitude: 023-23E, altura: 586 m

Observação actual do tempo

O boletim foi feito há 22 minutos, às 05:00 UTC
Vento 12 kt de oeste
Temperatura 0°C
Humidade 64%
Pressão 1027 hPa
Visibilidade 10 km ou mais
sem nuvens abaixo de 1500 metros e sem cumulonimbus

METAR: LBSF 230500Z 28012KT CAVOK M00/M06 Q1027 NOSIG

Hora: 07:22 (05:22 UTC)

Previsão

O boletim foi feito há 6 horas e 22 minutos, às 23:00 UTC
Previsão válida de 23 às 00 UTC a 23 às 24 UTC
Vento 14 kt de oeste
Visibilidade: 8000 m
Nuvens dispersasa uma altura de 5500 ft
Temporariamente
de 23 às 00 UTC a 23 às 04 UTC
Vento 16 kt de oes-noroeste com rajadas de 28 kt
Tornando-se
de 23 às 19 UTC a 23 às 21 UTC
Vento 4 kt com direcção variável

TAF: LBSF 222300Z 2300/2324 28014KT 8000 SCT055 TEMPO 2300/2304 29016G28KT BECMG 2319/2321 VRB04KT

Observações e previsões do tempo de mais de 4000 aeroportos (mensagens METAR e TAF).

As estações disponíveis são os pontos amarelos e vermelhos sobre o mapa.

Mova o rato sobre o mapa para ver o nome da estação.

Depois clique no ponto para visualizar as observações e previsões meteorológicas.

Para alterar o mapa : clique nos botões verdes com uma cruz preta para aumentar o zoom; no botão verde com uma pitada de zoom; ou nas setas verdes para mapas adjacentes.


METAR-TAF: